sensor_id;sensor_type;location;lat;lon;timestamp;pressure;altitude;pressure_sealevel;temperature;humidity
49723;BME280;43484;43.608;1.458;2022-12-11T00:00:05;99460.50;;;-0.75;100.00
49723;BME280;43484;43.608;1.458;2022-12-11T00:02:31;99460.53;;;-0.62;100.00
49723;BME280;43484;43.608;1.458;2022-12-11T00:04:58;99460.53;;;-0.62;100.00
49723;BME280;43484;43.608;1.458;2022-12-11T00:07:25;99457.16;;;-0.62;100.00
49723;BME280;43484;43.608;1.458;2022-12-11T00:09:52;99454.56;;;-0.64;100.00
49723;BME280;43484;43.608;1.458;2022-12-11T00:12:18;99451.63;;;-0.70;100.00
49723;BME280;43484;43.608;1.458;2022-12-11T00:14:45;99453.38;;;-0.69;100.00
49723;BME280;43484;43.608;1.458;2022-12-11T00:17:11;99446.03;;;-0.66;100.00
49723;BME280;43484;43.608;1.458;2022-12-11T00:19:38;99452.31;;;-0.72;100.00
49723;BME280;43484;43.608;1.458;2022-12-11T00:22:04;99444.50;;;-0.64;100.00
49723;BME280;43484;43.608;1.458;2022-12-11T00:24:31;99450.25;;;-0.78;100.00
49723;BME280;43484;43.608;1.458;2022-12-11T00:26:58;99449.88;;;-0.71;100.00
49723;BME280;43484;43.608;1.458;2022-12-11T00:29:25;99448.81;;;-0.74;100.00
49723;BME280;43484;43.608;1.458;2022-12-11T00:31:52;99450.50;;;-1.11;100.00
49723;BME280;43484;43.608;1.458;2022-12-11T00:34:19;99449.66;;;-1.23;100.00
49723;BME280;43484;43.608;1.458;2022-12-11T00:36:45;99448.69;;;-1.37;100.00
49723;BME280;43484;43.608;1.458;2022-12-11T00:39:12;99443.03;;;-1.34;100.00
49723;BME280;43484;43.608;1.458;2022-12-11T00:41:38;99427.53;;;-1.15;100.00
49723;BME280;43484;43.608;1.458;2022-12-11T00:44:05;99424.78;;;-1.32;100.00
49723;BME280;43484;43.608;1.458;2022-12-11T00:46:32;99427.72;;;-1.37;100.00
49723;BME280;43484;43.608;1.458;2022-12-11T00:48:58;99422.34;;;-1.30;100.00
49723;BME280;43484;43.608;1.458;2022-12-11T00:51:25;99412.59;;;-1.14;100.00
49723;BME280;43484;43.608;1.458;2022-12-11T00:53:51;99423.97;;;-1.19;100.00
49723;BME280;43484;43.608;1.458;2022-12-11T00:56:20;99420.88;;;-1.15;100.00
49723;BME280;43484;43.608;1.458;2022-12-11T00:58:48;99414.03;;;-1.17;100.00
49723;BME280;43484;43.608;1.458;2022-12-11T01:01:19;99412.22;;;-1.32;100.00
49723;BME280;43484;43.608;1.458;2022-12-11T01:03:47;99404.38;;;-1.36;100.00
49723;BME280;43484;43.608;1.458;2022-12-11T01:06:20;99398.66;;;-1.34;100.00
49723;BME280;43484;43.608;1.458;2022-12-11T01:08:47;99400.63;;;-1.30;100.00
49723;BME280;43484;43.608;1.458;2022-12-11T01:11:15;99399.66;;;-1.32;100.00
49723;BME280;43484;43.608;1.458;2022-12-11T01:13:42;99394.06;;;-1.27;100.00
49723;BME280;43484;43.608;1.458;2022-12-11T01:16:14;99395.03;;;-1.26;100.00
49723;BME280;43484;43.608;1.458;2022-12-11T01:18:41;99387.09;;;-1.32;100.00
49723;BME280;43484;43.608;1.458;2022-12-11T01:21:10;99385.75;;;-1.27;100.00
49723;BME280;43484;43.608;1.458;2022-12-11T01:23:37;99390.44;;;-1.19;100.00
49723;BME280;43484;43.608;1.458;2022-12-11T01:28:33;99402.16;;;-1.32;100.00
49723;BME280;43484;43.608;1.458;2022-12-11T01:31:00;99394.53;;;-1.33;100.00
49723;BME280;43484;43.608;1.458;2022-12-11T01:33:27;99391.41;;;-1.17;100.00
49723;BME280;43484;43.608;1.458;2022-12-11T01:35:53;99396.53;;;-1.16;100.00
49723;BME280;43484;43.608;1.458;2022-12-11T01:38:20;99401.38;;;-1.19;100.00
49723;BME280;43484;43.608;1.458;2022-12-11T01:40:48;99403.41;;;-1.13;100.00
49723;BME280;43484;43.608;1.458;2022-12-11T01:43:15;99400.56;;;-0.93;100.00
49723;BME280;43484;43.608;1.458;2022-12-11T01:45:44;99405.94;;;-1.00;100.00
49723;BME280;43484;43.608;1.458;2022-12-11T01:48:16;99400.28;;;-0.98;100.00
49723;BME280;43484;43.608;1.458;2022-12-11T01:50:48;99403.03;;;-1.06;100.00
49723;BME280;43484;43.608;1.458;2022-12-11T01:53:21;99395.09;;;-1.12;100.00
49723;BME280;43484;43.608;1.458;2022-12-11T01:55:50;99401.22;;;-1.20;100.00
49723;BME280;43484;43.608;1.458;2022-12-11T01:58:19;99394.63;;;-1.32;100.00
49723;BME280;43484;43.608;1.458;2022-12-11T02:00:48;99390.69;;;-1.28;100.00
49723;BME280;43484;43.608;1.458;2022-12-11T02:03:15;99385.59;;;-1.16;100.00
49723;BME280;43484;43.608;1.458;2022-12-11T02:05:41;99376.78;;;-0.98;100.00
49723;BME280;43484;43.608;1.458;2022-12-11T02:08:08;99384.97;;;-1.14;100.00
49723;BME280;43484;43.608;1.458;2022-12-11T02:16:09;99360.72;;;-1.25;100.00
49723;BME280;43484;43.608;1.458;2022-12-11T02:19:02;99343.59;;;-1.31;100.00
49723;BME280;43484;43.608;1.458;2022-12-11T02:21:38;99334.06;;;-1.23;100.00
49723;BME280;43484;43.608;1.458;2022-12-11T02:24:17;99335.97;;;-1.32;100.00
49723;BME280;43484;43.608;1.458;2022-12-11T02:27:46;99332.03;;;-1.29;100.00
49723;BME280;43484;43.608;1.458;2022-12-11T02:30:00;99332.91;;;-1.28;100.00
49723;BME280;43484;43.608;1.458;2022-12-11T02:32:39;99326.78;;;-1.32;100.00
49723;BME280;43484;43.608;1.458;2022-12-11T02:37:41;99327.00;;;-1.53;100.00
49723;BME280;43484;43.608;1.458;2022-12-11T02:40:11;99323.34;;;-1.70;100.00
49723;BME280;43484;43.608;1.458;2022-12-11T02:42:42;99327.53;;;-1.82;100.00
49723;BME280;43484;43.608;1.458;2022-12-11T02:45:10;99315.53;;;-1.86;100.00
49723;BME280;43484;43.608;1.458;2022-12-11T02:47:38;99311.03;;;-1.78;100.00
49723;BME280;43484;43.608;1.458;2022-12-11T02:50:08;99311.34;;;-1.74;100.00
49723;BME280;43484;43.608;1.458;2022-12-11T02:52:38;99320.25;;;-1.66;100.00
49723;BME280;43484;43.608;1.458;2022-12-11T02:55:07;99316.13;;;-1.65;100.00
49723;BME280;43484;43.608;1.458;2022-12-11T02:57:43;99312.44;;;-1.70;100.00
49723;BME280;43484;43.608;1.458;2022-12-11T03:00:12;99306.50;;;-1.59;100.00
49723;BME280;43484;43.608;1.458;2022-12-11T03:02:39;99298.28;;;-1.57;100.00
49723;BME280;43484;43.608;1.458;2022-12-11T03:05:08;99292.25;;;-1.72;100.00
49723;BME280;43484;43.608;1.458;2022-12-11T03:07:37;99293.72;;;-1.87;100.00
49723;BME280;43484;43.608;1.458;2022-12-11T03:10:08;99282.69;;;-1.89;100.00
49723;BME280;43484;43.608;1.458;2022-12-11T03:12:38;99280.13;;;-1.77;100.00
49723;BME280;43484;43.608;1.458;2022-12-11T03:15:08;99290.19;;;-1.77;100.00
49723;BME280;43484;43.608;1.458;2022-12-11T03:17:48;99295.84;;;-1.68;100.00
49723;BME280;43484;43.608;1.458;2022-12-11T03:20:33;99294.56;;;-1.75;100.00
49723;BME280;43484;43.608;1.458;2022-12-11T03:23:07;99289.47;;;-1.63;100.00
49723;BME280;43484;43.608;1.458;2022-12-11T03:25:49;99303.88;;;-1.61;100.00
49723;BME280;43484;43.608;1.458;2022-12-11T03:28:23;99302.25;;;-1.60;100.00
49723;BME280;43484;43.608;1.458;2022-12-11T03:30:53;99291.16;;;-1.51;100.00
49723;BME280;43484;43.608;1.458;2022-12-11T03:33:24;99299.31;;;-1.42;100.00
49723;BME280;43484;43.608;1.458;2022-12-11T03:35:58;99298.78;;;-1.38;100.00
49723;BME280;43484;43.608;1.458;2022-12-11T03:38:47;99308.97;;;-1.48;100.00
49723;BME280;43484;43.608;1.458;2022-12-11T03:41:18;99310.16;;;-1.43;100.00
49723;BME280;43484;43.608;1.458;2022-12-11T03:43:48;99310.22;;;-1.54;100.00
49723;BME280;43484;43.608;1.458;2022-12-11T03:46:20;99317.66;;;-1.67;100.00
49723;BME280;43484;43.608;1.458;2022-12-11T03:48:48;99320.25;;;-1.54;100.00
49723;BME280;43484;43.608;1.458;2022-12-11T03:51:16;99318.72;;;-1.64;100.00
49723;BME280;43484;43.608;1.458;2022-12-11T03:53:44;99312.53;;;-1.69;100.00
49723;BME280;43484;43.608;1.458;2022-12-11T03:56:12;99310.25;;;-1.77;100.00
49723;BME280;43484;43.608;1.458;2022-12-11T03:58:41;99309.16;;;-1.69;100.00
49723;BME280;43484;43.608;1.458;2022-12-11T04:01:09;99307.97;;;-1.74;100.00
49723;BME280;43484;43.608;1.458;2022-12-11T04:03:36;99292.16;;;-1.73;100.00
49723;BME280;43484;43.608;1.458;2022-12-11T04:06:03;99288.94;;;-1.71;100.00
49723;BME280;43484;43.608;1.458;2022-12-11T04:08:30;99286.28;;;-1.61;100.00
49723;BME280;43484;43.608;1.458;2022-12-11T04:10:57;99290.81;;;-1.68;100.00
49723;BME280;43484;43.608;1.458;2022-12-11T04:13:42;99281.41;;;-1.71;100.00
49723;BME280;43484;43.608;1.458;2022-12-11T04:16:09;99269.41;;;-1.63;100.00
49723;BME280;43484;43.608;1.458;2022-12-11T04:18:36;99264.09;;;-1.68;100.00
49723;BME280;43484;43.608;1.458;2022-12-11T04:21:21;99265.91;;;-1.65;100.00
49723;BME280;43484;43.608;1.458;2022-12-11T04:24:06;99274.22;;;-1.42;100.00
49723;BME280;43484;43.608;1.458;2022-12-11T04:26:46;99266.84;;;-1.52;100.00
49723;BME280;43484;43.608;1.458;2022-12-11T04:29:13;99258.38;;;-1.65;100.00
49723;BME280;43484;43.608;1.458;2022-12-11T04:31:40;99251.03;;;-1.62;100.00
49723;BME280;43484;43.608;1.458;2022-12-11T04:34:07;99248.78;;;-1.71;100.00
49723;BME280;43484;43.608;1.458;2022-12-11T04:36:33;99244.25;;;-1.76;100.00
49723;BME280;43484;43.608;1.458;2022-12-11T04:39:01;99236.13;;;-1.72;100.00
49723;BME280;43484;43.608;1.458;2022-12-11T04:41:27;99231.22;;;-1.71;100.00
49723;BME280;43484;43.608;1.458;2022-12-11T04:43:54;99230.28;;;-1.73;100.00
49723;BME280;43484;43.608;1.458;2022-12-11T04:46:22;99217.31;;;-1.66;100.00
49723;BME280;43484;43.608;1.458;2022-12-11T04:48:50;99213.53;;;-1.72;100.00
49723;BME280;43484;43.608;1.458;2022-12-11T04:51:23;99223.38;;;-1.75;100.00
49723;BME280;43484;43.608;1.458;2022-12-11T04:53:50;99222.22;;;-1.80;100.00
49723;BME280;43484;43.608;1.458;2022-12-11T04:56:16;99214.13;;;-1.76;100.00
49723;BME280;43484;43.608;1.458;2022-12-11T04:58:44;99215.13;;;-1.86;100.00
49723;BME280;43484;43.608;1.458;2022-12-11T05:01:16;99214.78;;;-1.79;100.00
49723;BME280;43484;43.608;1.458;2022-12-11T05:03:43;99206.00;;;-1.72;100.00
49723;BME280;43484;43.608;1.458;2022-12-11T05:06:11;99198.97;;;-1.78;100.00
49723;BME280;43484;43.608;1.458;2022-12-11T05:08:40;99216.78;;;-1.86;100.00
49723;BME280;43484;43.608;1.458;2022-12-11T05:11:09;99210.59;;;-1.91;100.00
49723;BME280;43484;43.608;1.458;2022-12-11T05:13:38;99208.78;;;-1.81;100.00
49723;BME280;43484;43.608;1.458;2022-12-11T05:16:06;99203.00;;;-1.80;100.00
49723;BME280;43484;43.608;1.458;2022-12-11T05:18:34;99205.38;;;-1.94;100.00
49723;BME280;43484;43.608;1.458;2022-12-11T05:21:04;99200.31;;;-1.83;100.00
49723;BME280;43484;43.608;1.458;2022-12-11T05:23:31;99197.16;;;-1.92;100.00
49723;BME280;43484;43.608;1.458;2022-12-11T05:25:59;99189.78;;;-2.02;100.00
49723;BME280;43484;43.608;1.458;2022-12-11T05:28:28;99188.50;;;-2.08;100.00
49723;BME280;43484;43.608;1.458;2022-12-11T05:31:00;99177.97;;;-1.91;100.00
49723;BME280;43484;43.608;1.458;2022-12-11T05:33:27;99173.06;;;-1.90;100.00
49723;BME280;43484;43.608;1.458;2022-12-11T05:35:54;99174.88;;;-1.87;100.00
49723;BME280;43484;43.608;1.458;2022-12-11T05:38:21;99171.69;;;-1.98;100.00
49723;BME280;43484;43.608;1.458;2022-12-11T05:40:59;99167.06;;;-1.92;100.00
49723;BME280;43484;43.608;1.458;2022-12-11T05:43:28;99172.22;;;-1.77;100.00
49723;BME280;43484;43.608;1.458;2022-12-11T05:45:55;99168.06;;;-1.77;100.00
49723;BME280;43484;43.608;1.458;2022-12-11T05:48:22;99170.75;;;-1.87;100.00
49723;BME280;43484;43.608;1.458;2022-12-11T05:50:59;99158.88;;;-1.89;100.00
49723;BME280;43484;43.608;1.458;2022-12-11T05:53:26;99168.59;;;-1.94;100.00
49723;BME280;43484;43.608;1.458;2022-12-11T05:55:53;99155.44;;;-2.03;100.00
49723;BME280;43484;43.608;1.458;2022-12-11T05:58:20;99147.81;;;-2.04;100.00
49723;BME280;43484;43.608;1.458;2022-12-11T06:00:47;99147.19;;;-1.89;100.00
49723;BME280;43484;43.608;1.458;2022-12-11T06:03:13;99139.09;;;-1.85;100.00
49723;BME280;43484;43.608;1.458;2022-12-11T06:05:41;99144.00;;;-1.86;100.00
49723;BME280;43484;43.608;1.458;2022-12-11T06:08:08;99139.66;;;-1.89;100.00
49723;BME280;43484;43.608;1.458;2022-12-11T06:10:34;99139.28;;;-1.82;100.00
49723;BME280;43484;43.608;1.458;2022-12-11T06:13:01;99136.50;;;-1.73;100.00
49723;BME280;43484;43.608;1.458;2022-12-11T06:15:28;99155.06;;;-1.71;100.00
49723;BME280;43484;43.608;1.458;2022-12-11T06:17:55;99150.16;;;-1.94;100.00
49723;BME280;43484;43.608;1.458;2022-12-11T06:20:21;99141.75;;;-1.95;100.00
49723;BME280;43484;43.608;1.458;2022-12-11T06:22:48;99145.34;;;-1.91;100.00
49723;BME280;43484;43.608;1.458;2022-12-11T06:25:14;99143.13;;;-1.87;100.00
49723;BME280;43484;43.608;1.458;2022-12-11T06:27:41;99151.34;;;-1.89;100.00
49723;BME280;43484;43.608;1.458;2022-12-11T06:30:08;99141.97;;;-1.92;100.00
49723;BME280;43484;43.608;1.458;2022-12-11T06:32:35;99133.81;;;-2.01;100.00
49723;BME280;43484;43.608;1.458;2022-12-11T06:35:02;99123.50;;;-1.92;100.00
49723;BME280;43484;43.608;1.458;2022-12-11T06:37:28;99118.75;;;-2.01;100.00
49723;BME280;43484;43.608;1.458;2022-12-11T06:39:55;99115.16;;;-1.80;100.00
49723;BME280;43484;43.608;1.458;2022-12-11T06:42:21;99111.50;;;-1.72;100.00
49723;BME280;43484;43.608;1.458;2022-12-11T06:44:48;99106.75;;;-1.80;100.00
49723;BME280;43484;43.608;1.458;2022-12-11T06:47:14;99095.88;;;-2.05;100.00
49723;BME280;43484;43.608;1.458;2022-12-11T06:49:41;99097.63;;;-2.04;100.00
49723;BME280;43484;43.608;1.458;2022-12-11T06:52:07;99101.75;;;-2.18;100.00
49723;BME280;43484;43.608;1.458;2022-12-11T06:54:40;99090.38;;;-2.13;100.00
49723;BME280;43484;43.608;1.458;2022-12-11T06:57:08;99091.38;;;-2.22;100.00
49723;BME280;43484;43.608;1.458;2022-12-11T06:59:34;99096.94;;;-2.15;100.00
49723;BME280;43484;43.608;1.458;2022-12-11T07:02:01;99093.44;;;-2.17;100.00
49723;BME280;43484;43.608;1.458;2022-12-11T07:04:28;99088.06;;;-2.10;100.00
49723;BME280;43484;43.608;1.458;2022-12-11T07:06:56;99090.13;;;-2.04;100.00
49723;BME280;43484;43.608;1.458;2022-12-11T07:09:23;99094.25;;;-2.05;100.00
49723;BME280;43484;43.608;1.458;2022-12-11T07:11:51;99098.50;;;-2.04;100.00
49723;BME280;43484;43.608;1.458;2022-12-11T07:14:18;99094.56;;;-1.87;100.00
49723;BME280;43484;43.608;1.458;2022-12-11T07:16:45;99100.66;;;-1.84;100.00
49723;BME280;43484;43.608;1.458;2022-12-11T07:19:12;99104.16;;;-1.82;100.00
49723;BME280;43484;43.608;1.458;2022-12-11T07:21:38;99104.84;;;-1.84;100.00
49723;BME280;43484;43.608;1.458;2022-12-11T07:24:05;99102.78;;;-1.90;100.00
49723;BME280;43484;43.608;1.458;2022-12-11T07:26:32;99085.22;;;-1.90;100.00
49723;BME280;43484;43.608;1.458;2022-12-11T07:28:59;99091.72;;;-1.67;100.00
49723;BME280;43484;43.608;1.458;2022-12-11T07:31:27;99092.88;;;-1.62;100.00
49723;BME280;43484;43.608;1.458;2022-12-11T07:33:56;99091.03;;;-1.78;100.00
49723;BME280;43484;43.608;1.458;2022-12-11T07:36:23;99095.44;;;-1.87;100.00
49723;BME280;43484;43.608;1.458;2022-12-11T07:38:50;99091.41;;;-1.85;100.00
49723;BME280;43484;43.608;1.458;2022-12-11T07:41:17;99099.75;;;-1.73;100.00
49723;BME280;43484;43.608;1.458;2022-12-11T07:43:45;99103.88;;;-1.73;100.00
49723;BME280;43484;43.608;1.458;2022-12-11T07:46:18;99102.16;;;-1.74;100.00
49723;BME280;43484;43.608;1.458;2022-12-11T07:48:46;99099.09;;;-1.95;100.00
49723;BME280;43484;43.608;1.458;2022-12-11T07:53:47;99086.94;;;-1.89;100.00
49723;BME280;43484;43.608;1.458;2022-12-11T07:56:14;99089.88;;;-1.83;100.00
49723;BME280;43484;43.608;1.458;2022-12-11T07:58:42;99083.50;;;-1.78;100.00
49723;BME280;43484;43.608;1.458;2022-12-11T08:01:13;99076.28;;;-1.60;100.00
49723;BME280;43484;43.608;1.458;2022-12-11T08:03:40;99073.28;;;-1.68;100.00
49723;BME280;43484;43.608;1.458;2022-12-11T08:06:08;99070.19;;;-1.51;100.00
49723;BME280;43484;43.608;1.458;2022-12-11T08:08:35;99060.75;;;-1.55;100.00
49723;BME280;43484;43.608;1.458;2022-12-11T08:11:02;99080.41;;;-1.74;100.00
49723;BME280;43484;43.608;1.458;2022-12-11T08:13:29;99077.25;;;-1.71;100.00
49723;BME280;43484;43.608;1.458;2022-12-11T08:15:56;99069.00;;;-1.82;100.00
49723;BME280;43484;43.608;1.458;2022-12-11T08:18:23;99058.78;;;-1.72;100.00
49723;BME280;43484;43.608;1.458;2022-12-11T08:20:49;99062.00;;;-1.61;100.00
49723;BME280;43484;43.608;1.458;2022-12-11T08:23:16;99050.97;;;-1.76;100.00
49723;BME280;43484;43.608;1.458;2022-12-11T08:25:42;99048.09;;;-1.69;100.00
49723;BME280;43484;43.608;1.458;2022-12-11T08:28:09;99044.09;;;-1.92;100.00
49723;BME280;43484;43.608;1.458;2022-12-11T08:30:37;99032.06;;;-1.84;100.00
49723;BME280;43484;43.608;1.458;2022-12-11T08:33:05;99042.09;;;-1.84;100.00
49723;BME280;43484;43.608;1.458;2022-12-11T08:35:32;99037.25;;;-1.81;100.00
49723;BME280;43484;43.608;1.458;2022-12-11T08:37:58;99049.41;;;-1.87;100.00
49723;BME280;43484;43.608;1.458;2022-12-11T08:40:25;99052.59;;;-1.77;100.00
49723;BME280;43484;43.608;1.458;2022-12-11T08:42:51;99045.06;;;-1.64;100.00
49723;BME280;43484;43.608;1.458;2022-12-11T08:45:18;99049.16;;;-1.53;100.00
49723;BME280;43484;43.608;1.458;2022-12-11T08:47:44;99046.44;;;-1.43;100.00
49723;BME280;43484;43.608;1.458;2022-12-11T08:50:11;99044.41;;;-1.35;100.00
49723;BME280;43484;43.608;1.458;2022-12-11T08:52:37;99036.56;;;-1.27;100.00
49723;BME280;43484;43.608;1.458;2022-12-11T08:55:04;99048.44;;;-1.37;100.00
49723;BME280;43484;43.608;1.458;2022-12-11T08:57:31;99035.63;;;-1.42;100.00
49723;BME280;43484;43.608;1.458;2022-12-11T08:59:58;99039.66;;;-1.44;100.00
49723;BME280;43484;43.608;1.458;2022-12-11T09:02:25;99033.97;;;-1.41;100.00
49723;BME280;43484;43.608;1.458;2022-12-11T09:04:51;99031.88;;;-1.61;100.00
49723;BME280;43484;43.608;1.458;2022-12-11T09:07:18;99038.13;;;-1.55;100.00
49723;BME280;43484;43.608;1.458;2022-12-11T09:09:44;99044.78;;;-1.42;100.00
49723;BME280;43484;43.608;1.458;2022-12-11T09:12:11;99057.91;;;-1.72;100.00
49723;BME280;43484;43.608;1.458;2022-12-11T09:14:37;99054.16;;;-1.66;100.00
49723;BME280;43484;43.608;1.458;2022-12-11T09:17:04;99042.59;;;-1.38;100.00
49723;BME280;43484;43.608;1.458;2022-12-11T09:19:31;99039.47;;;-1.34;100.00
49723;BME280;43484;43.608;1.458;2022-12-11T09:21:58;99046.13;;;-1.21;100.00
49723;BME280;43484;43.608;1.458;2022-12-11T09:24:24;99039.25;;;-1.23;100.00
49723;BME280;43484;43.608;1.458;2022-12-11T09:26:51;99038.09;;;-1.02;100.00
49723;BME280;43484;43.608;1.458;2022-12-11T09:29:19;99045.63;;;-1.15;100.00
49723;BME280;43484;43.608;1.458;2022-12-11T09:31:46;99039.44;;;-1.07;100.00
49723;BME280;43484;43.608;1.458;2022-12-11T09:34:14;99040.38;;;-1.05;100.00
49723;BME280;43484;43.608;1.458;2022-12-11T09:36:41;99045.03;;;-0.98;100.00
49723;BME280;43484;43.608;1.458;2022-12-11T09:39:09;99042.38;;;-0.74;100.00
49723;BME280;43484;43.608;1.458;2022-12-11T09:47:17;99046.63;;;-0.58;100.00
49723;BME280;43484;43.608;1.458;2022-12-11T09:49:46;99038.56;;;-0.67;100.00
49723;BME280;43484;43.608;1.458;2022-12-11T09:52:17;99039.88;;;-0.59;100.00
49723;BME280;43484;43.608;1.458;2022-12-11T09:54:53;99040.94;;;-0.56;100.00
49723;BME280;43484;43.608;1.458;2022-12-11T09:57:30;99041.03;;;-0.54;100.00
49723;BME280;43484;43.608;1.458;2022-12-11T10:00:11;99034.31;;;-0.26;100.00
49723;BME280;43484;43.608;1.458;2022-12-11T10:16:48;99019.63;;;-0.33;100.00
49723;BME280;43484;43.608;1.458;2022-12-11T10:19:20;99011.16;;;-0.21;100.00
49723;BME280;43484;43.608;1.458;2022-12-11T10:21:50;99002.19;;;-0.30;100.00
49723;BME280;43484;43.608;1.458;2022-12-11T10:24:27;98993.47;;;-0.22;100.00
49723;BME280;43484;43.608;1.458;2022-12-11T10:27:20;98992.66;;;-0.21;100.00
49723;BME280;43484;43.608;1.458;2022-12-11T10:29:57;98985.81;;;-0.24;100.00
49723;BME280;43484;43.608;1.458;2022-12-11T10:38:00;98946.06;;;0.15;100.00
49723;BME280;43484;43.608;1.458;2022-12-11T10:40:28;98952.72;;;0.14;100.00
49723;BME280;43484;43.608;1.458;2022-12-11T10:42:56;98948.44;;;0.28;100.00
49723;BME280;43484;43.608;1.458;2022-12-11T10:45:23;98945.25;;;0.30;100.00
49723;BME280;43484;43.608;1.458;2022-12-11T10:48:01;98941.38;;;0.51;100.00
49723;BME280;43484;43.608;1.458;2022-12-11T10:50:28;98934.94;;;0.72;100.00
49723;BME280;43484;43.608;1.458;2022-12-11T10:52:55;98928.75;;;0.82;100.00
49723;BME280;43484;43.608;1.458;2022-12-11T10:55:52;98928.75;;;0.82;100.00
49723;BME280;43484;43.608;1.458;2022-12-11T10:58:22;98920.44;;;0.84;100.00
49723;BME280;43484;43.608;1.458;2022-12-11T11:01:05;98909.59;;;0.85;100.00
49723;BME280;43484;43.608;1.458;2022-12-11T11:03:34;98920.75;;;0.74;100.00
49723;BME280;43484;43.608;1.458;2022-12-11T11:06:15;98924.31;;;0.62;100.00
49723;BME280;43484;43.608;1.458;2022-12-11T11:08:47;98933.59;;;0.63;100.00
49723;BME280;43484;43.608;1.458;2022-12-11T11:16:31;98937.63;;;0.75;100.00
49723;BME280;43484;43.608;1.458;2022-12-11T11:19:00;98929.13;;;0.73;100.00
49723;BME280;43484;43.608;1.458;2022-12-11T11:21:27;98918.00;;;0.70;100.00
49723;BME280;43484;43.608;1.458;2022-12-11T11:23:55;98906.59;;;0.76;100.00
49723;BME280;43484;43.608;1.458;2022-12-11T11:26:22;98903.16;;;0.90;100.00
49723;BME280;43484;43.608;1.458;2022-12-11T11:28:51;98896.28;;;0.88;100.00
49723;BME280;43484;43.608;1.458;2022-12-11T11:31:21;98893.69;;;0.86;100.00
49723;BME280;43484;43.608;1.458;2022-12-11T11:33:59;98887.06;;;0.88;100.00
49723;BME280;43484;43.608;1.458;2022-12-11T11:36:31;98890.84;;;0.96;100.00
49723;BME280;43484;43.608;1.458;2022-12-11T11:43:57;98852.22;;;1.13;100.00
49723;BME280;43484;43.608;1.458;2022-12-11T11:46:37;98843.72;;;1.11;100.00
49723;BME280;43484;43.608;1.458;2022-12-11T11:49:27;98852.50;;;1.19;100.00
49723;BME280;43484;43.608;1.458;2022-12-11T11:52:11;98854.34;;;1.22;100.00
49723;BME280;43484;43.608;1.458;2022-12-11T11:54:54;98859.22;;;1.19;100.00
49723;BME280;43484;43.608;1.458;2022-12-11T11:57:31;98853.47;;;1.39;100.00
49723;BME280;43484;43.608;1.458;2022-12-11T12:00:05;98841.59;;;1.37;100.00
49723;BME280;43484;43.608;1.458;2022-12-11T12:02:36;98835.25;;;1.45;100.00
49723;BME280;43484;43.608;1.458;2022-12-11T12:05:03;98834.50;;;1.46;100.00
49723;BME280;43484;43.608;1.458;2022-12-11T12:08:09;98842.94;;;1.64;100.00
49723;BME280;43484;43.608;1.458;2022-12-11T12:14:06;98835.66;;;1.70;100.00
49723;BME280;43484;43.608;1.458;2022-12-11T12:25:30;98823.88;;;1.88;100.00
49723;BME280;43484;43.608;1.458;2022-12-11T12:28:01;98815.53;;;1.89;100.00
49723;BME280;43484;43.608;1.458;2022-12-11T12:30:39;98815.28;;;1.84;100.00
49723;BME280;43484;43.608;1.458;2022-12-11T12:33:20;98816.91;;;1.82;100.00
49723;BME280;43484;43.608;1.458;2022-12-11T12:38:52;98814.94;;;1.94;100.00
49723;BME280;43484;43.608;1.458;2022-12-11T12:41:34;98819.97;;;1.94;100.00
49723;BME280;43484;43.608;1.458;2022-12-11T12:44:11;98819.28;;;1.97;100.00
49723;BME280;43484;43.608;1.458;2022-12-11T12:46:48;98807.53;;;1.97;100.00
49723;BME280;43484;43.608;1.458;2022-12-11T12:51:56;98801.78;;;2.19;100.00
49723;BME280;43484;43.608;1.458;2022-12-11T12:54:25;98808.03;;;2.27;100.00
49723;BME280;43484;43.608;1.458;2022-12-11T12:56:53;98804.63;;;2.26;100.00
49723;BME280;43484;43.608;1.458;2022-12-11T12:59:22;98802.84;;;2.24;100.00
49723;BME280;43484;43.608;1.458;2022-12-11T13:01:53;98805.78;;;2.33;100.00
49723;BME280;43484;43.608;1.458;2022-12-11T13:04:42;98810.81;;;2.33;100.00
49723;BME280;43484;43.608;1.458;2022-12-11T13:07:26;98811.56;;;2.30;100.00
49723;BME280;43484;43.608;1.458;2022-12-11T13:10:06;98805.56;;;2.28;100.00
49723;BME280;43484;43.608;1.458;2022-12-11T13:12:42;98813.66;;;2.39;100.00
49723;BME280;43484;43.608;1.458;2022-12-11T13:15:41;98810.59;;;2.46;100.00
49723;BME280;43484;43.608;1.458;2022-12-11T13:18:35;98813.38;;;2.52;100.00
49723;BME280;43484;43.608;1.458;2022-12-11T13:21:23;98811.38;;;2.45;100.00
49723;BME280;43484;43.608;1.458;2022-12-11T13:23:51;98808.25;;;2.50;100.00
49723;BME280;43484;43.608;1.458;2022-12-11T13:26:28;98801.81;;;2.57;100.00
49723;BME280;43484;43.608;1.458;2022-12-11T13:28:56;98792.88;;;2.65;100.00
49723;BME280;43484;43.608;1.458;2022-12-11T13:31:34;98790.38;;;2.84;100.00
49723;BME280;43484;43.608;1.458;2022-12-11T13:34:30;98780.84;;;2.79;100.00
49723;BME280;43484;43.608;1.458;2022-12-11T13:36:58;98776.38;;;2.92;100.00
49723;BME280;43484;43.608;1.458;2022-12-11T13:39:29;98774.22;;;3.01;100.00
49723;BME280;43484;43.608;1.458;2022-12-11T13:42:03;98776.00;;;3.04;100.00
49723;BME280;43484;43.608;1.458;2022-12-11T13:44:40;98769.28;;;3.04;100.00
49723;BME280;43484;43.608;1.458;2022-12-11T13:47:12;98781.44;;;2.92;100.00
49723;BME280;43484;43.608;1.458;2022-12-11T13:49:41;98775.31;;;2.87;100.00
49723;BME280;43484;43.608;1.458;2022-12-11T13:52:21;98783.72;;;2.86;100.00
49723;BME280;43484;43.608;1.458;2022-12-11T13:54:50;98782.59;;;3.00;100.00
49723;BME280;43484;43.608;1.458;2022-12-11T13:57:19;98784.59;;;3.07;100.00
49723;BME280;43484;43.608;1.458;2022-12-11T13:59:49;98789.59;;;3.06;100.00
49723;BME280;43484;43.608;1.458;2022-12-11T14:02:37;98793.72;;;3.04;100.00
49723;BME280;43484;43.608;1.458;2022-12-11T14:05:07;98783.88;;;3.10;100.00
49723;BME280;43484;43.608;1.458;2022-12-11T14:07:40;98785.34;;;3.05;100.00
49723;BME280;43484;43.608;1.458;2022-12-11T14:10:15;98783.00;;;3.09;100.00
49723;BME280;43484;43.608;1.458;2022-12-11T14:15:21;98772.38;;;3.38;100.00
49723;BME280;43484;43.608;1.458;2022-12-11T14:17:48;98766.25;;;3.33;100.00